San Francisco, California
Traffic Map
Current Weather Conditions
San Francisco, California
Scattered Clouds
Scattered Clouds
79°
Feels Like: 79°
Wind Chill: 79° Ceiling: Unl
Heat Index: 79° Visibility: 10mi
Dew Point: 51° Wind: 15mph
Humidity: 38% Direction: 300° (WNW)
Pressure: 29.82in Gusts: 0mph
Raw Report DataKSFO 290156Z 30013KT 10SM SCT180 26/11 A2982 RMK AO2 SLP098 T02610106
Traffic Incident Summary
Active as of:
Severity:
Category:
InformationThere was an issue retrieving the traffic information for this location. Please try a different location or try again shortly.
Advertisements
Track Severe Weather on mobile